createdAt,value
2023-04-09T00:01:40.750Z,47.80
2023-04-09T00:04:09.386Z,47.80
2023-04-09T00:06:38.479Z,47.80
2023-04-09T00:09:08.126Z,47.70
2023-04-09T00:11:36.326Z,48.10
2023-04-09T00:14:04.535Z,48.00
2023-04-09T00:16:32.825Z,48.10
2023-04-09T00:19:01.129Z,48.00
2023-04-09T00:21:29.525Z,48.00
2023-04-09T00:23:57.696Z,47.50
2023-04-09T00:26:27.559Z,47.40
2023-04-09T00:28:56.199Z,47.60
2023-04-09T00:31:24.688Z,47.10
2023-04-09T00:33:53.044Z,47.60
2023-04-09T00:36:21.265Z,47.40
2023-04-09T00:38:51.834Z,47.70
2023-04-09T00:41:20.832Z,47.80
2023-04-09T00:43:50.747Z,47.90
2023-04-09T00:46:19.480Z,47.60
2023-04-09T00:48:47.721Z,47.70
2023-04-09T00:51:16.568Z,47.90
2023-04-09T00:53:44.954Z,47.80
2023-04-09T00:56:16.392Z,48.10
2023-04-09T00:58:44.603Z,48.30
2023-04-09T01:01:14.167Z,48.30
2023-04-09T01:03:43.652Z,48.30
2023-04-09T01:06:33.765Z,48.30
2023-04-09T01:09:07.278Z,48.40
2023-04-09T01:11:40.048Z,48.10
2023-04-09T01:14:15.608Z,48.10
2023-04-09T01:16:48.746Z,48.10
2023-04-09T01:19:34.657Z,48.00
2023-04-09T01:22:04.989Z,47.70
2023-04-09T01:24:46.185Z,47.80
2023-04-09T01:27:15.708Z,47.70
2023-04-09T01:29:49.094Z,47.80
2023-04-09T01:32:20.416Z,47.40
2023-04-09T01:34:50.312Z,47.70
2023-04-09T01:37:20.041Z,47.60
2023-04-09T01:39:48.586Z,47.60
2023-04-09T01:42:18.838Z,47.40
2023-04-09T01:44:49.190Z,47.10
2023-04-09T01:47:17.761Z,47.00
2023-04-09T01:49:47.068Z,47.10
2023-04-09T01:52:16.154Z,46.90
2023-04-09T01:54:44.293Z,46.70
2023-04-09T01:57:12.559Z,47.00
2023-04-09T01:59:41.200Z,46.70
2023-04-09T02:02:13.887Z,46.90
2023-04-09T02:04:47.678Z,46.90
2023-04-09T02:07:24.551Z,46.70
2023-04-09T02:09:55.075Z,46.60
2023-04-09T02:12:25.659Z,46.60
2023-04-09T02:14:55.722Z,46.60
2023-04-09T02:17:25.348Z,46.50
2023-04-09T02:19:53.606Z,46.60
2023-04-09T02:22:21.924Z,46.80
2023-04-09T02:24:50.141Z,46.50
2023-04-09T02:27:18.572Z,46.80
2023-04-09T02:29:47.147Z,46.70
2023-04-09T02:32:15.611Z,47.00
2023-04-09T02:34:45.878Z,46.80
2023-04-09T02:37:14.396Z,46.60
2023-04-09T02:39:42.647Z,46.70
2023-04-09T02:42:11.101Z,46.60
2023-04-09T02:44:39.401Z,46.10
2023-04-09T02:47:07.780Z,46.30
2023-04-09T02:49:36.127Z,46.50
2023-04-09T02:52:05.912Z,46.00
2023-04-09T02:54:34.217Z,46.00
2023-04-09T02:57:02.459Z,46.20
2023-04-09T02:59:33.025Z,46.00
2023-04-09T03:02:01.207Z,46.10
2023-04-09T03:04:29.640Z,46.00
2023-04-09T03:06:57.848Z,45.60
2023-04-09T03:09:27.445Z,45.80
2023-04-09T03:11:56.492Z,45.80
2023-04-09T03:14:24.848Z,45.70
2023-04-09T03:16:53.408Z,46.00
2023-04-09T03:19:21.611Z,45.70
2023-04-09T03:21:51.492Z,45.90
2023-04-09T03:24:19.753Z,45.70
2023-04-09T03:26:49.629Z,45.90
2023-04-09T03:29:18.151Z,45.90
2023-04-09T03:31:46.420Z,45.80
2023-04-09T03:34:14.866Z,45.90
2023-04-09T03:36:43.123Z,46.00
2023-04-09T03:39:11.369Z,46.00
2023-04-09T03:41:39.686Z,46.20
2023-04-09T03:44:09.478Z,45.80
2023-04-09T03:46:37.809Z,45.80
2023-04-09T03:49:06.158Z,46.10
2023-04-09T03:51:34.399Z,46.00
2023-04-09T03:54:03.063Z,46.00
2023-04-09T03:56:31.256Z,45.80
2023-04-09T03:58:59.638Z,46.20
2023-04-09T04:01:29.282Z,46.20
2023-04-09T04:03:57.652Z,46.20
2023-04-09T04:06:26.110Z,46.40
2023-04-09T04:08:55.034Z,46.60
2023-04-09T04:11:23.372Z,46.40
2023-04-09T04:13:51.669Z,46.50
2023-04-09T04:16:19.889Z,46.90
2023-04-09T04:18:49.592Z,46.80
2023-04-09T04:21:18.265Z,46.80
2023-04-09T04:23:46.757Z,47.00
2023-04-09T04:26:14.963Z,47.20
2023-04-09T04:28:43.611Z,47.30
2023-04-09T04:31:13.106Z,47.80
2023-04-09T04:33:42.872Z,47.60
2023-04-09T04:36:13.959Z,47.40
2023-04-09T04:38:43.029Z,47.50
2023-04-09T04:41:12.475Z,47.80
2023-04-09T04:43:42.126Z,47.80
2023-04-09T04:46:10.659Z,47.80
2023-04-09T04:48:38.899Z,48.00
2023-04-09T04:51:07.420Z,48.10
2023-04-09T04:53:37.009Z,48.30
2023-04-09T04:56:06.368Z,48.10
2023-04-09T04:58:34.615Z,48.10
2023-04-09T05:01:03.070Z,48.00
2023-04-09T05:03:31.386Z,47.70
2023-04-09T05:05:59.786Z,48.10
2023-04-09T05:08:28.061Z,48.50
2023-04-09T05:10:57.709Z,48.40
2023-04-09T05:13:26.013Z,48.40
2023-04-09T05:15:54.244Z,48.40
2023-04-09T05:18:22.443Z,48.70
2023-04-09T05:20:51.028Z,48.70
2023-04-09T05:23:19.202Z,48.80
2023-04-09T05:25:49.705Z,48.90
2023-04-09T05:28:19.244Z,48.80
2023-04-09T05:30:48.129Z,48.50
2023-04-09T05:33:16.401Z,48.10
2023-04-09T05:35:44.889Z,48.40
2023-04-09T05:38:14.814Z,48.30
2023-04-09T05:40:45.036Z,48.40
2023-04-09T05:43:13.528Z,48.00
2023-04-09T05:45:43.288Z,48.30
2023-04-09T05:48:11.698Z,48.10
2023-04-09T05:50:51.465Z,48.20
2023-04-09T05:53:23.592Z,48.10
2023-04-09T05:55:51.965Z,48.00
2023-04-09T05:58:20.462Z,47.80
2023-04-09T06:00:51.628Z,47.90
2023-04-09T06:03:20.399Z,47.60
2023-04-09T06:05:49.202Z,47.60
2023-04-09T06:08:17.440Z,47.70
2023-04-09T06:10:45.599Z,47.50
2023-04-09T06:13:13.903Z,47.50
2023-04-09T06:15:42.100Z,47.50
2023-04-09T06:18:11.982Z,47.40
2023-04-09T06:20:41.524Z,47.50
2023-04-09T06:23:09.819Z,47.40
2023-04-09T06:25:38.199Z,47.60
2023-04-09T06:28:06.743Z,47.90
2023-04-09T06:30:37.133Z,47.60
2023-04-09T06:33:05.451Z,47.40
2023-04-09T06:35:35.054Z,47.50
2023-04-09T06:38:03.568Z,47.50
2023-04-09T06:40:31.802Z,47.30
2023-04-09T06:43:00.115Z,47.30
2023-04-09T06:45:28.522Z,47.50
2023-04-09T06:47:57.221Z,47.40
2023-04-09T06:50:25.812Z,47.60
2023-04-09T06:52:55.604Z,47.20
2023-04-09T06:55:23.760Z,47.40
2023-04-09T06:57:52.398Z,47.70
2023-04-09T07:00:20.655Z,47.50
2023-04-09T07:02:49.156Z,47.50
2023-04-09T07:05:17.946Z,47.60
2023-04-09T07:07:46.458Z,47.40
2023-04-09T07:10:16.420Z,47.40
2023-04-09T07:12:44.693Z,47.20
2023-04-09T07:15:13.065Z,47.00
2023-04-09T07:17:41.796Z,47.50
2023-04-09T07:20:11.084Z,47.30
2023-04-09T07:22:40.208Z,47.00
2023-04-09T07:25:10.135Z,47.00
2023-04-09T07:27:40.114Z,47.20
2023-04-09T07:30:10.783Z,47.00
2023-04-09T07:32:40.016Z,47.00
2023-04-09T07:35:10.819Z,47.20
2023-04-09T07:37:39.590Z,47.10
2023-04-09T07:40:12.241Z,47.40
2023-04-09T07:42:42.833Z,47.20
2023-04-09T07:45:11.254Z,47.00
2023-04-09T07:47:42.171Z,46.80
2023-04-09T07:50:16.702Z,47.10
2023-04-09T07:52:45.917Z,47.00
2023-04-09T07:55:16.263Z,46.90
2023-04-09T07:57:47.072Z,47.00
2023-04-09T08:00:16.562Z,46.70
2023-04-09T08:02:45.859Z,46.60
2023-04-09T08:05:32.172Z,46.50
2023-04-09T08:08:01.827Z,46.70
2023-04-09T08:10:30.731Z,46.30
2023-04-09T08:13:01.648Z,46.40
2023-04-09T08:15:30.501Z,46.40
2023-04-09T08:17:59.236Z,46.40
2023-04-09T08:20:29.542Z,46.30
2023-04-09T08:22:59.438Z,46.60
2023-04-09T08:25:28.590Z,46.20
2023-04-09T08:27:57.061Z,46.30
2023-04-09T08:30:27.455Z,46.40
2023-04-09T08:32:56.106Z,46.30
2023-04-09T08:35:28.510Z,46.00
2023-04-09T08:38:01.850Z,45.50
2023-04-09T08:40:35.069Z,45.70
2023-04-09T08:43:06.724Z,45.70
2023-04-09T08:45:36.790Z,45.90
2023-04-09T08:48:06.578Z,46.00
2023-04-09T08:50:34.975Z,45.90
2023-04-09T08:53:05.741Z,45.80
2023-04-09T08:55:35.549Z,45.70
2023-04-09T08:58:07.275Z,45.70
2023-04-09T09:00:37.103Z,45.40
2023-04-09T09:03:07.276Z,45.90
2023-04-09T09:05:39.894Z,45.60
2023-04-09T09:08:10.129Z,45.40
2023-04-09T09:10:39.731Z,45.60
2023-04-09T09:13:22.521Z,45.50
2023-04-09T09:15:55.303Z,45.40
2023-04-09T09:18:39.786Z,45.40
2023-04-09T09:21:14.472Z,45.30
2023-04-09T09:23:43.397Z,45.40
2023-04-09T09:26:16.390Z,45.10
2023-04-09T09:28:45.456Z,45.50
2023-04-09T09:31:16.029Z,45.40
2023-04-09T09:33:44.830Z,45.20
2023-04-09T09:36:13.482Z,45.10
2023-04-09T09:38:56.454Z,44.40
2023-04-09T09:41:26.019Z,43.40
2023-04-09T09:43:54.565Z,42.90
2023-04-09T09:46:27.468Z,42.90
2023-04-09T09:48:57.608Z,42.20
2023-04-09T09:51:29.774Z,42.70
2023-04-09T09:53:58.874Z,42.30
2023-04-09T09:56:33.412Z,41.70
2023-04-09T09:59:15.320Z,42.10
2023-04-09T10:01:48.909Z,41.90
2023-04-09T10:04:21.192Z,41.50
2023-04-09T10:06:53.329Z,41.50
2023-04-09T10:09:28.127Z,41.30
2023-04-09T10:11:59.360Z,41.20
2023-04-09T10:14:29.396Z,40.80
2023-04-09T10:16:59.364Z,40.40
2023-04-09T10:19:28.204Z,40.50
2023-04-09T10:22:06.220Z,40.50
2023-04-09T10:24:39.750Z,39.90
2023-04-09T10:27:15.104Z,39.90
2023-04-09T10:29:46.536Z,39.20
2023-04-09T10:32:23.590Z,39.20
2023-04-09T10:34:58.496Z,38.70
2023-04-09T10:37:34.212Z,38.40
2023-04-09T10:40:05.227Z,38.40
2023-04-09T10:42:36.686Z,37.80
2023-04-09T10:45:22.413Z,37.80
2023-04-09T10:47:54.865Z,38.10
2023-04-09T10:50:30.928Z,38.10
2023-04-09T10:53:00.755Z,37.70
2023-04-09T10:55:35.452Z,37.30
2023-04-09T10:58:05.864Z,36.50
2023-04-09T11:00:37.941Z,36.40
2023-04-09T11:03:24.926Z,36.40
2023-04-09T11:06:01.081Z,35.80
2023-04-09T11:08:32.271Z,35.70
2023-04-09T11:11:01.535Z,35.70
2023-04-09T11:13:31.359Z,35.60
2023-04-09T11:16:01.205Z,35.70
2023-04-09T11:18:34.042Z,36.00
2023-04-09T11:21:04.302Z,34.70
2023-04-09T11:23:33.590Z,34.30
2023-04-09T11:26:03.908Z,34.30
2023-04-09T11:28:32.294Z,34.00
2023-04-09T11:31:00.592Z,33.20
2023-04-09T11:33:34.809Z,32.70
2023-04-09T11:36:06.426Z,32.60
2023-04-09T11:38:35.148Z,32.00
2023-04-09T11:41:03.360Z,31.80
2023-04-09T11:43:31.733Z,31.60
2023-04-09T11:46:00.751Z,30.40
2023-04-09T11:48:29.189Z,31.00
2023-04-09T11:50:59.084Z,31.20
2023-04-09T11:53:32.211Z,31.60
2023-04-09T11:56:01.649Z,31.00
2023-04-09T11:58:29.910Z,31.10
2023-04-09T12:01:00.419Z,30.40
2023-04-09T12:03:30.786Z,30.00
2023-04-09T12:06:03.882Z,29.50
2023-04-09T12:08:34.624Z,29.80
2023-04-09T12:11:11.456Z,30.40
2023-04-09T12:13:43.256Z,29.90
2023-04-09T12:16:12.274Z,30.40
2023-04-09T12:18:41.178Z,29.60
2023-04-09T12:21:10.924Z,29.10
2023-04-09T12:23:39.119Z,30.40
2023-04-09T12:26:07.974Z,29.60
2023-04-09T12:28:37.148Z,28.20
2023-04-09T12:31:06.178Z,28.30
2023-04-09T12:33:37.969Z,29.50
2023-04-09T12:36:06.567Z,29.20
2023-04-09T12:38:36.118Z,28.20
2023-04-09T12:41:04.968Z,27.50
2023-04-09T12:43:40.269Z,26.80
2023-04-09T12:46:08.787Z,26.00
2023-04-09T12:48:40.478Z,26.80
2023-04-09T12:51:09.153Z,27.40
2023-04-09T12:53:46.090Z,27.70
2023-04-09T12:56:14.613Z,27.40
2023-04-09T12:58:42.992Z,27.10
2023-04-09T13:01:11.486Z,26.40
2023-04-09T13:03:41.480Z,26.60
2023-04-09T13:06:10.256Z,26.30
2023-04-09T13:08:38.536Z,25.90
2023-04-09T13:11:08.434Z,25.60
2023-04-09T13:13:36.606Z,24.70
2023-04-09T13:16:05.398Z,24.60
2023-04-09T13:18:35.749Z,24.50
2023-04-09T13:21:04.503Z,24.70
2023-04-09T13:23:33.276Z,24.80
2023-04-09T13:26:01.748Z,25.20
2023-04-09T13:28:31.289Z,24.40
2023-04-09T13:30:59.514Z,24.10
2023-04-09T13:33:28.013Z,24.20
2023-04-09T13:35:58.354Z,24.20
2023-04-09T13:38:26.722Z,24.40
2023-04-09T13:40:56.465Z,24.50
2023-04-09T13:43:28.139Z,23.50
2023-04-09T13:45:58.274Z,23.90
2023-04-09T13:48:26.902Z,24.30
2023-04-09T13:50:57.656Z,24.50
2023-04-09T13:53:26.208Z,24.60
2023-04-09T13:55:54.586Z,25.20
2023-04-09T13:58:24.896Z,24.90
2023-04-09T14:00:53.478Z,24.30
2023-04-09T14:03:24.902Z,24.00
2023-04-09T14:05:53.675Z,24.40
2023-04-09T14:08:22.264Z,23.30
2023-04-09T14:10:52.530Z,23.70
2023-04-09T14:13:21.639Z,23.50
2023-04-09T14:15:50.067Z,23.50
2023-04-09T14:18:18.570Z,23.80
2023-04-09T14:20:48.132Z,23.50
2023-04-09T14:23:16.604Z,24.10
2023-04-09T14:25:46.092Z,23.90
2023-04-09T14:28:14.366Z,23.00
2023-04-09T14:30:45.569Z,22.80
2023-04-09T14:33:13.854Z,23.60
2023-04-09T14:35:42.347Z,24.30
2023-04-09T14:38:13.233Z,23.30
2023-04-09T14:40:41.475Z,23.40
2023-04-09T14:43:09.918Z,23.60
2023-04-09T14:45:38.323Z,22.60
2023-04-09T14:48:06.808Z,22.60
2023-04-09T14:50:36.198Z,22.70
2023-04-09T14:53:06.670Z,23.50
2023-04-09T14:55:36.236Z,23.60
2023-04-09T14:58:07.281Z,23.80
2023-04-09T15:00:36.102Z,23.70
2023-04-09T15:03:05.044Z,23.40
2023-04-09T15:05:33.452Z,23.80
2023-04-09T15:08:02.531Z,22.80
2023-04-09T15:10:32.451Z,23.40
2023-04-09T15:13:02.254Z,23.50
2023-04-09T15:15:30.586Z,24.10
2023-04-09T15:18:05.697Z,23.30
2023-04-09T15:20:37.574Z,23.00
2023-04-09T15:23:05.997Z,23.80
2023-04-09T15:25:34.419Z,23.60
2023-04-09T15:28:04.457Z,23.70
2023-04-09T15:30:35.544Z,23.10
2023-04-09T15:33:06.321Z,23.60
2023-04-09T15:35:35.305Z,23.40
2023-04-09T15:38:03.806Z,23.60
2023-04-09T15:40:32.776Z,23.80
2023-04-09T15:43:02.212Z,24.70
2023-04-09T15:45:32.014Z,24.40
2023-04-09T15:48:00.402Z,24.60
2023-04-09T15:50:28.933Z,24.60
2023-04-09T15:52:58.595Z,24.80
2023-04-09T15:55:30.786Z,25.00
2023-04-09T15:57:59.502Z,25.80
2023-04-09T16:00:29.337Z,25.50
2023-04-09T16:03:02.759Z,25.30
2023-04-09T16:05:32.745Z,25.00
2023-04-09T16:08:02.427Z,24.90
2023-04-09T16:10:32.044Z,25.00
2023-04-09T16:13:01.151Z,24.20
2023-04-09T16:15:29.955Z,24.00
2023-04-09T16:17:59.958Z,25.40
2023-04-09T16:20:29.671Z,25.90
2023-04-09T16:22:58.833Z,25.90
2023-04-09T16:25:28.213Z,25.60
2023-04-09T16:27:57.350Z,26.20
2023-04-09T16:30:26.282Z,26.30
2023-04-09T16:32:56.013Z,25.90
2023-04-09T16:35:26.095Z,26.10
2023-04-09T16:37:54.727Z,26.00
2023-04-09T16:40:24.426Z,26.80
2023-04-09T16:42:53.050Z,26.80
2023-04-09T16:45:22.110Z,26.90
2023-04-09T16:47:54.013Z,27.20
2023-04-09T16:50:22.670Z,27.30
2023-04-09T16:52:52.658Z,27.50
2023-04-09T16:55:22.211Z,27.40
2023-04-09T16:57:56.139Z,27.40
2023-04-09T17:00:24.561Z,27.90
2023-04-09T17:02:53.625Z,28.10
2023-04-09T17:05:22.928Z,28.50
2023-04-09T17:07:53.706Z,28.10
2023-04-09T17:10:23.300Z,28.40
2023-04-09T17:12:52.256Z,28.60
2023-04-09T17:15:23.104Z,28.60
2023-04-09T17:17:53.816Z,29.00
2023-04-09T17:20:29.966Z,29.20
2023-04-09T17:23:01.023Z,29.10
2023-04-09T17:25:32.324Z,29.60
2023-04-09T17:28:01.694Z,29.70
2023-04-09T17:30:33.230Z,29.90
2023-04-09T17:33:03.762Z,29.70
2023-04-09T17:35:32.784Z,30.40
2023-04-09T17:38:04.882Z,30.10
2023-04-09T17:40:43.136Z,30.10
2023-04-09T17:43:12.907Z,30.20
2023-04-09T17:45:42.778Z,30.40
2023-04-09T17:48:12.495Z,30.80
2023-04-09T17:50:41.840Z,32.30
2023-04-09T17:53:17.423Z,32.20
2023-04-09T17:55:50.853Z,32.70
2023-04-09T17:58:20.740Z,32.60
2023-04-09T18:00:49.165Z,32.80
2023-04-09T18:03:19.251Z,33.10
2023-04-09T18:05:47.791Z,33.20
2023-04-09T18:08:17.621Z,33.60
2023-04-09T18:11:01.684Z,33.60
2023-04-09T18:13:38.341Z,33.90
2023-04-09T18:16:10.085Z,34.00
2023-04-09T18:18:38.525Z,33.80
2023-04-09T18:21:07.350Z,34.20
2023-04-09T18:23:37.380Z,34.40
2023-04-09T18:26:06.898Z,34.50
2023-04-09T18:28:35.544Z,34.60
2023-04-09T18:31:03.938Z,34.70
2023-04-09T18:33:32.563Z,34.50
2023-04-09T18:36:01.737Z,34.70
2023-04-09T18:38:30.524Z,34.80
2023-04-09T18:41:01.543Z,34.60
2023-04-09T18:43:30.150Z,35.00
2023-04-09T18:45:58.642Z,35.10
2023-04-09T18:48:27.654Z,35.10
2023-04-09T18:50:55.996Z,35.50
2023-04-09T18:53:25.066Z,35.20
2023-04-09T18:55:53.632Z,35.00
2023-04-09T18:58:24.033Z,35.40
2023-04-09T19:00:53.011Z,35.50
2023-04-09T19:03:21.984Z,35.50
2023-04-09T19:05:50.711Z,35.60
2023-04-09T19:08:19.123Z,35.10
2023-04-09T19:10:48.411Z,35.10
2023-04-09T19:13:17.027Z,35.30
2023-04-09T19:15:46.730Z,35.70
2023-04-09T19:18:15.160Z,35.70
2023-04-09T19:20:44.180Z,35.60
2023-04-09T19:23:12.494Z,35.40
2023-04-09T19:25:41.027Z,35.10
2023-04-09T19:28:09.499Z,35.60
2023-04-09T19:30:37.876Z,35.30
2023-04-09T19:33:07.721Z,35.30
2023-04-09T19:35:42.214Z,35.10
2023-04-09T19:38:10.595Z,35.20
2023-04-09T19:40:39.044Z,35.10
2023-04-09T19:43:07.617Z,35.40
2023-04-09T19:45:37.369Z,35.00
2023-04-09T19:48:07.586Z,34.90
2023-04-09T19:50:37.790Z,35.00
2023-04-09T19:53:07.169Z,35.10
2023-04-09T19:55:37.888Z,35.00
2023-04-09T19:58:06.801Z,34.90
2023-04-09T20:00:36.260Z,34.40
2023-04-09T20:03:06.029Z,34.80
2023-04-09T20:05:35.882Z,35.10
2023-04-09T20:08:04.494Z,34.40
2023-04-09T20:10:32.746Z,34.90
2023-04-09T20:13:01.652Z,34.80
2023-04-09T20:15:30.239Z,34.80
2023-04-09T20:17:58.734Z,34.90
2023-04-09T20:20:27.266Z,36.00
2023-04-09T20:22:57.648Z,36.10
2023-04-09T20:25:26.394Z,35.80
2023-04-09T20:27:55.330Z,36.10
2023-04-09T20:30:23.869Z,36.30
2023-04-09T20:32:52.310Z,36.30
2023-04-09T20:35:40.398Z,36.30
2023-04-09T20:38:10.571Z,36.20
2023-04-09T20:40:39.035Z,36.50
2023-04-09T20:43:07.677Z,36.30
2023-04-09T20:45:36.077Z,36.50
2023-04-09T20:48:04.633Z,36.50
2023-04-09T20:50:33.058Z,36.60
2023-04-09T20:53:01.535Z,36.70
2023-04-09T20:55:31.192Z,36.80
2023-04-09T20:58:00.232Z,36.70
2023-04-09T21:00:28.644Z,37.00
2023-04-09T21:02:57.008Z,37.00
2023-04-09T21:05:25.328Z,37.20
2023-04-09T21:07:54.239Z,37.30
2023-04-09T21:10:22.819Z,37.70
2023-04-09T21:12:52.369Z,37.30
2023-04-09T21:15:20.683Z,37.40
2023-04-09T21:17:49.152Z,37.30
2023-04-09T21:20:17.556Z,37.70
2023-04-09T21:22:45.908Z,37.50
2023-04-09T21:25:15.518Z,37.40
2023-04-09T21:27:44.097Z,37.20
2023-04-09T21:30:13.986Z,37.60
2023-04-09T21:32:42.276Z,37.80
2023-04-09T21:35:10.648Z,37.90
2023-04-09T21:37:39.024Z,37.80
2023-04-09T21:40:09.665Z,37.80
2023-04-09T21:42:38.115Z,37.60
2023-04-09T21:45:07.784Z,38.10
2023-04-09T21:47:37.668Z,38.00
2023-04-09T21:50:06.753Z,38.30
2023-04-09T21:52:35.619Z,38.20
2023-04-09T21:55:10.370Z,38.20
2023-04-09T21:57:44.480Z,38.00
2023-04-09T22:00:16.206Z,38.10
2023-04-09T22:02:46.591Z,38.70
2023-04-09T22:05:15.805Z,38.40
2023-04-09T22:07:45.178Z,38.10
2023-04-09T22:10:13.756Z,38.20
2023-04-09T22:12:42.317Z,38.80
2023-04-09T22:15:12.183Z,38.50
2023-04-09T22:17:40.631Z,38.70
2023-04-09T22:20:11.159Z,39.10
2023-04-09T22:22:39.938Z,38.80
2023-04-09T22:25:09.024Z,38.70
2023-04-09T22:27:37.427Z,39.00
2023-04-09T22:30:06.586Z,39.00
2023-04-09T22:32:35.152Z,39.30
2023-04-09T22:36:11.393Z,38.70
2023-04-09T22:38:41.486Z,38.80
2023-04-09T22:41:10.201Z,38.80
2023-04-09T22:43:46.882Z,38.50
2023-04-09T22:46:15.240Z,38.90
2023-04-09T22:48:45.028Z,38.90
2023-04-09T22:51:14.537Z,39.20
2023-04-09T22:53:44.283Z,38.80
2023-04-09T22:56:12.658Z,39.00
2023-04-09T22:58:41.094Z,39.00
2023-04-09T23:01:09.593Z,39.00
2023-04-09T23:03:37.938Z,39.00
2023-04-09T23:06:06.888Z,39.20
2023-04-09T23:08:35.264Z,39.20
2023-04-09T23:11:07.303Z,39.10
2023-04-09T23:13:35.660Z,39.10
2023-04-09T23:16:06.226Z,39.30
2023-04-09T23:18:35.901Z,39.10
2023-04-09T23:21:06.080Z,39.50
2023-04-09T23:23:34.563Z,39.30
2023-04-09T23:26:04.540Z,39.50
2023-04-09T23:28:33.045Z,39.50
2023-04-09T23:31:01.366Z,39.50
2023-04-09T23:33:29.603Z,39.20
2023-04-09T23:35:57.759Z,39.50
2023-04-09T23:38:26.186Z,39.60
2023-04-09T23:40:54.376Z,39.30
2023-04-09T23:43:23.951Z,39.20
2023-04-09T23:45:52.157Z,39.50
2023-04-09T23:48:20.319Z,39.40
2023-04-09T23:50:49.734Z,39.60
2023-04-09T23:53:17.976Z,39.60
2023-04-09T23:55:47.744Z,39.70
2023-04-09T23:58:16.050Z,39.80
